createdAt,value
2018-01-22T00:07:24.683Z,10
2018-01-22T00:17:24.814Z,10
2018-01-22T00:27:24.777Z,10
2018-01-22T00:37:24.715Z,8
2018-01-22T00:47:24.676Z,8
2018-01-22T00:57:25.436Z,9
2018-01-22T01:07:24.721Z,8
2018-01-22T01:17:24.723Z,8
2018-01-22T01:27:24.674Z,8
2018-01-22T01:37:24.759Z,8
2018-01-22T01:47:24.714Z,7
2018-01-22T01:57:24.622Z,7
2018-01-22T02:07:24.711Z,5
2018-01-22T02:17:24.625Z,6
2018-01-22T02:27:24.714Z,5
2018-01-22T02:37:24.788Z,4
2018-01-22T02:47:24.590Z,5
2018-01-22T02:57:24.683Z,4
2018-01-22T03:07:24.641Z,4
2018-01-22T03:17:24.654Z,6
2018-01-22T03:27:24.641Z,5
2018-01-22T03:37:24.642Z,5
2018-01-22T03:47:24.632Z,4
2018-01-22T03:57:24.727Z,4
2018-01-22T04:07:24.609Z,5
2018-01-22T04:17:24.717Z,5
2018-01-22T04:27:24.684Z,5
2018-01-22T04:37:24.622Z,4
2018-01-22T04:47:24.623Z,4
2018-01-22T04:57:24.634Z,5
2018-01-22T05:07:24.554Z,5
2018-01-22T05:17:24.681Z,6
2018-01-22T05:27:24.618Z,6
2018-01-22T05:37:24.634Z,6
2018-01-22T05:48:20.500Z,6
2018-01-22T05:57:53.164Z,6
2018-01-22T06:07:24.531Z,6
2018-01-22T06:17:24.643Z,6
2018-01-22T06:27:24.547Z,6
2018-01-22T06:37:24.621Z,6
2018-01-22T06:47:24.621Z,6
2018-01-22T06:57:24.665Z,7
2018-01-22T07:07:24.592Z,8
2018-01-22T07:17:24.593Z,8
2018-01-22T07:27:24.549Z,9
2018-01-22T07:37:24.738Z,8
2018-01-22T07:47:24.672Z,10
2018-01-22T07:57:25.818Z,11
2018-01-22T08:07:24.739Z,10
2018-01-22T08:17:24.665Z,8
2018-01-22T08:27:24.592Z,9
2018-01-22T08:37:24.566Z,10
2018-01-22T08:47:24.600Z,12
2018-01-22T08:57:24.563Z,14
2018-01-22T09:07:24.753Z,16
2018-01-22T09:17:24.669Z,16
2018-01-22T09:27:24.729Z,17
2018-01-22T09:37:24.765Z,18
2018-01-22T09:47:24.781Z,16
2018-01-22T09:57:24.702Z,14
2018-01-22T10:07:24.730Z,9
2018-01-22T10:17:24.726Z,7
2018-01-22T10:27:24.730Z,9
2018-01-22T10:37:24.781Z,11
2018-01-22T10:47:24.689Z,13
2018-01-22T10:57:24.917Z,14
2018-01-22T11:07:24.759Z,16
2018-01-22T11:17:24.978Z,14
2018-01-22T11:27:24.739Z,16
2018-01-22T11:37:24.821Z,18
2018-01-22T11:47:24.857Z,16
2018-01-22T11:57:24.832Z,19
2018-01-22T12:07:24.837Z,15
2018-01-22T12:17:24.888Z,16
2018-01-22T12:27:24.870Z,15
2018-01-22T12:37:24.896Z,15
2018-01-22T12:47:24.854Z,13
2018-01-22T12:57:24.842Z,13
2018-01-22T13:07:24.856Z,10
2018-01-22T13:17:24.868Z,11
2018-01-22T13:27:24.911Z,11
2018-01-22T13:37:26.021Z,7
2018-01-22T13:47:25.000Z,7
2018-01-22T13:57:24.921Z,6
2018-01-22T14:07:25.040Z,7
2018-01-22T14:17:24.849Z,6
2018-01-22T14:27:25.049Z,5
2018-01-22T14:37:25.010Z,6
2018-01-22T14:47:25.176Z,7
2018-01-22T14:57:24.970Z,7
2018-01-22T15:07:25.063Z,7
2018-01-22T15:17:25.037Z,7
2018-01-22T15:27:25.152Z,7
2018-01-22T15:37:25.039Z,9
2018-01-22T15:47:25.013Z,9
2018-01-22T15:57:25.037Z,9
2018-01-22T16:07:25.151Z,8
2018-01-22T16:17:25.130Z,8
2018-01-22T16:27:25.185Z,9
2018-01-22T16:37:25.069Z,8
2018-01-22T16:47:25.172Z,9
2018-01-22T16:57:25.137Z,9
2018-01-22T17:07:25.210Z,9
2018-01-22T17:17:25.080Z,9
2018-01-22T17:27:25.085Z,9
2018-01-22T17:37:25.229Z,10
2018-01-22T17:47:25.147Z,9
2018-01-22T17:57:25.036Z,8
2018-01-22T18:07:25.077Z,8
2018-01-22T18:17:25.134Z,8
2018-01-22T18:27:25.150Z,8
2018-01-22T18:37:25.223Z,9
2018-01-22T18:47:25.226Z,9
2018-01-22T18:57:25.103Z,8
2018-01-22T19:07:25.272Z,8
2018-01-22T19:17:25.234Z,8
2018-01-22T19:27:25.278Z,9
2018-01-22T19:37:25.339Z,8
2018-01-22T19:47:25.366Z,9
2018-01-22T19:57:25.290Z,10
2018-01-22T20:07:25.314Z,12
2018-01-22T20:17:25.370Z,12
2018-01-22T20:27:25.269Z,12
2018-01-22T20:37:25.341Z,12
2018-01-22T20:47:26.419Z,11
2018-01-22T20:57:25.427Z,9
2018-01-22T21:07:25.403Z,11
2018-01-22T21:17:25.393Z,11
2018-01-22T21:27:30.306Z,14
2018-01-22T21:37:25.358Z,10
2018-01-22T21:47:25.645Z,12
2018-01-22T21:57:25.629Z,12
2018-01-22T22:07:25.462Z,12
2018-01-22T22:17:25.435Z,11
2018-01-22T22:27:26.083Z,13
2018-01-22T22:37:27.665Z,12
2018-01-22T22:47:28.257Z,13
2018-01-22T22:57:27.168Z,13
2018-01-22T23:07:25.943Z,14
2018-01-22T23:17:26.489Z,13
2018-01-22T23:27:25.496Z,11
2018-01-22T23:37:25.655Z,13
2018-01-22T23:47:25.427Z,11
2018-01-22T23:57:25.545Z,13
